Hill, New Hampshire
Current Conditions -  °F | °C
As of 4:15 AM on Monday 22 Dec 2014 (Local Time) from KLCI Reporting Station
Overcast Overcast  
Wind Chill: 28°   Ceiling: 4200
Heat Index: 28°   Visibility: 10mi
Dew Point: 25°   Wind: 3mph
Humidity: 86%   Direction: 70°ENE
Pressure: 30.34"   Gusts: NA
Location:  43.52°N, 71.7°W
Report Text: KLCI 220915Z AUTO 07003KT 10SM OVC042 M02/M04 A3034 RMK AO1
Loading
Personal Weather Stations






























Interactive Weather Map New forecast layout! Learn more

10-Day Weather Forecast

Advertisements
Track Severe Weather on mobile